Parishville Center, New York
Current Conditions -  °F | °C
As of 8:53 PM on Friday 24 Oct 2014 (Local Time) from KMSS Reporting Station
Clear Clear  
Wind Chill: 43°   Ceiling: Unl
Heat Index: 46°   Visibility: 10mi
Dew Point: 41°   Wind: 6mph
Humidity: 83%   Direction: 220°SW
Pressure: 29.85"   Gusts: NA
Location:  44.6469°N, 74.9157°W
Report Text: KMSS 250053Z AUTO 22005KT 10SM CLR 08/05 A2985 RMK AO2 SLP111 T00780050
Loading
Personal Weather Stations






























Interactive Weather Map
Tropical Storm Tracking
New forecast layout! Learn more

10-Day Weather Forecast

Advertisements
Track Severe Weather on mobile